sensor_id;sensor_type;location;lat;lon;timestamp;P1;durP1;ratioP1;P2;durP2;ratioP2
75371;SDS011;63956;52.006;5.878;2023-04-24T00:01:31;6.97;;;4.53;;
75371;SDS011;63956;52.006;5.878;2023-04-24T00:04:05;4.30;;;2.63;;
75371;SDS011;63956;52.006;5.878;2023-04-24T00:06:36;4.43;;;2.60;;
75371;SDS011;63956;52.006;5.878;2023-04-24T00:09:08;8.20;;;3.00;;
75371;SDS011;63956;52.006;5.878;2023-04-24T00:11:38;4.10;;;2.13;;
75371;SDS011;63956;52.006;5.878;2023-04-24T00:14:07;5.30;;;3.28;;
75371;SDS011;63956;52.006;5.878;2023-04-24T00:19:07;4.72;;;2.67;;
75371;SDS011;63956;52.006;5.878;2023-04-24T00:21:37;4.55;;;1.35;;
75371;SDS011;63956;52.006;5.878;2023-04-24T00:24:06;5.30;;;3.00;;
75371;SDS011;63956;52.006;5.878;2023-04-24T00:26:36;4.45;;;3.47;;
75371;SDS011;63956;52.006;5.878;2023-04-24T00:29:06;4.05;;;2.13;;
75371;SDS011;63956;52.006;5.878;2023-04-24T00:31:35;6.70;;;3.13;;
75371;SDS011;63956;52.006;5.878;2023-04-24T00:36:36;3.80;;;2.67;;
75371;SDS011;63956;52.006;5.878;2023-04-24T00:39:05;3.75;;;2.45;;
75371;SDS011;63956;52.006;5.878;2023-04-24T00:41:34;3.67;;;2.15;;
75371;SDS011;63956;52.006;5.878;2023-04-24T00:44:03;3.08;;;1.80;;
75371;SDS011;63956;52.006;5.878;2023-04-24T00:46:33;5.63;;;3.15;;
75371;SDS011;63956;52.006;5.878;2023-04-24T00:49:02;3.30;;;2.17;;
75371;SDS011;63956;52.006;5.878;2023-04-24T00:51:31;3.20;;;1.95;;
75371;SDS011;63956;52.006;5.878;2023-04-24T00:54:05;3.20;;;1.65;;
75371;SDS011;63956;52.006;5.878;2023-04-24T00:56:34;4.05;;;2.78;;
75371;SDS011;63956;52.006;5.878;2023-04-24T01:01:32;3.53;;;2.13;;
75371;SDS011;63956;52.006;5.878;2023-04-24T01:04:02;3.50;;;2.05;;
75371;SDS011;63956;52.006;5.878;2023-04-24T01:06:32;5.20;;;2.83;;
75371;SDS011;63956;52.006;5.878;2023-04-24T01:09:04;3.60;;;2.20;;
75371;SDS011;63956;52.006;5.878;2023-04-24T01:11:36;3.53;;;2.50;;
75371;SDS011;63956;52.006;5.878;2023-04-24T01:14:05;3.78;;;2.50;;
75371;SDS011;63956;52.006;5.878;2023-04-24T01:16:35;4.07;;;2.22;;
75371;SDS011;63956;52.006;5.878;2023-04-24T01:19:05;5.00;;;2.70;;
75371;SDS011;63956;52.006;5.878;2023-04-24T01:21:35;6.07;;;3.88;;
75371;SDS011;63956;52.006;5.878;2023-04-24T01:24:08;7.93;;;4.38;;
75371;SDS011;63956;52.006;5.878;2023-04-24T01:26:37;6.85;;;4.63;;
75371;SDS011;63956;52.006;5.878;2023-04-24T01:29:07;7.47;;;4.20;;
75371;SDS011;63956;52.006;5.878;2023-04-24T01:31:36;7.00;;;3.25;;
75371;SDS011;63956;52.006;5.878;2023-04-24T01:34:06;8.18;;;4.95;;
75371;SDS011;63956;52.006;5.878;2023-04-24T01:36:35;6.15;;;3.55;;
75371;SDS011;63956;52.006;5.878;2023-04-24T01:39:04;5.53;;;3.67;;
75371;SDS011;63956;52.006;5.878;2023-04-24T01:41:36;5.18;;;2.58;;
75371;SDS011;63956;52.006;5.878;2023-04-24T01:44:06;5.45;;;3.13;;
75371;SDS011;63956;52.006;5.878;2023-04-24T01:49:04;4.15;;;1.20;;
75371;SDS011;63956;52.006;5.878;2023-04-24T01:51:33;4.95;;;2.53;;
75371;SDS011;63956;52.006;5.878;2023-04-24T01:54:02;4.38;;;2.65;;
75371;SDS011;63956;52.006;5.878;2023-04-24T01:56:35;3.97;;;2.38;;
75371;SDS011;63956;52.006;5.878;2023-04-24T01:59:10;4.32;;;2.40;;
75371;SDS011;63956;52.006;5.878;2023-04-24T02:01:39;3.47;;;1.02;;
75371;SDS011;63956;52.006;5.878;2023-04-24T02:06:37;3.47;;;2.20;;
75371;SDS011;63956;52.006;5.878;2023-04-24T02:09:06;4.50;;;2.55;;
75371;SDS011;63956;52.006;5.878;2023-04-24T02:11:39;4.85;;;2.65;;
75371;SDS011;63956;52.006;5.878;2023-04-24T02:14:08;4.63;;;2.42;;
75371;SDS011;63956;52.006;5.878;2023-04-24T02:16:39;4.45;;;2.72;;
75371;SDS011;63956;52.006;5.878;2023-04-24T02:19:09;5.45;;;2.72;;
75371;SDS011;63956;52.006;5.878;2023-04-24T02:21:38;5.47;;;3.10;;
75371;SDS011;63956;52.006;5.878;2023-04-24T02:24:08;6.65;;;3.47;;
75371;SDS011;63956;52.006;5.878;2023-04-24T02:29:08;6.60;;;3.30;;
75371;SDS011;63956;52.006;5.878;2023-04-24T02:31:37;4.90;;;1.33;;
75371;SDS011;63956;52.006;5.878;2023-04-24T02:34:07;7.28;;;4.05;;
75371;SDS011;63956;52.006;5.878;2023-04-24T02:36:36;6.63;;;4.50;;
75371;SDS011;63956;52.006;5.878;2023-04-24T02:41:34;6.93;;;3.42;;
75371;SDS011;63956;52.006;5.878;2023-04-24T02:46:35;9.55;;;4.82;;
75371;SDS011;63956;52.006;5.878;2023-04-24T02:49:07;10.27;;;5.75;;
75371;SDS011;63956;52.006;5.878;2023-04-24T02:51:37;9.23;;;4.18;;
75371;SDS011;63956;52.006;5.878;2023-04-24T02:54:07;9.23;;;5.93;;
75371;SDS011;63956;52.006;5.878;2023-04-24T02:56:37;12.20;;;6.43;;
75371;SDS011;63956;52.006;5.878;2023-04-24T02:59:10;11.93;;;6.82;;
75371;SDS011;63956;52.006;5.878;2023-04-24T03:01:39;13.65;;;6.53;;
75371;SDS011;63956;52.006;5.878;2023-04-24T03:06:37;11.65;;;6.95;;
75371;SDS011;63956;52.006;5.878;2023-04-24T03:09:06;10.43;;;6.70;;
75371;SDS011;63956;52.006;5.878;2023-04-24T03:11:36;9.15;;;5.38;;
75371;SDS011;63956;52.006;5.878;2023-04-24T03:14:10;8.77;;;4.65;;
75371;SDS011;63956;52.006;5.878;2023-04-24T03:16:39;7.47;;;4.10;;
75371;SDS011;63956;52.006;5.878;2023-04-24T03:19:08;6.88;;;3.05;;
75371;SDS011;63956;52.006;5.878;2023-04-24T03:21:48;8.48;;;4.63;;
75371;SDS011;63956;52.006;5.878;2023-04-24T03:24:18;7.15;;;4.15;;
75371;SDS011;63956;52.006;5.878;2023-04-24T03:26:48;6.85;;;3.65;;
75371;SDS011;63956;52.006;5.878;2023-04-24T03:29:41;8.45;;;5.47;;
75371;SDS011;63956;52.006;5.878;2023-04-24T03:32:11;9.05;;;5.30;;
75371;SDS011;63956;52.006;5.878;2023-04-24T03:34:41;8.50;;;5.45;;
75371;SDS011;63956;52.006;5.878;2023-04-24T03:37:13;9.05;;;4.90;;
75371;SDS011;63956;52.006;5.878;2023-04-24T03:39:48;11.05;;;6.63;;
75371;SDS011;63956;52.006;5.878;2023-04-24T03:42:22;9.90;;;5.53;;
75371;SDS011;63956;52.006;5.878;2023-04-24T03:44:57;11.88;;;7.28;;
75371;SDS011;63956;52.006;5.878;2023-04-24T03:47:31;11.68;;;5.43;;
75371;SDS011;63956;52.006;5.878;2023-04-24T03:50:02;13.05;;;8.15;;
75371;SDS011;63956;52.006;5.878;2023-04-24T03:52:33;10.63;;;6.38;;
75371;SDS011;63956;52.006;5.878;2023-04-24T03:55:03;7.65;;;3.88;;
75371;SDS011;63956;52.006;5.878;2023-04-24T03:57:41;15.35;;;10.15;;
75371;SDS011;63956;52.006;5.878;2023-04-24T04:00:22;13.07;;;8.52;;
75371;SDS011;63956;52.006;5.878;2023-04-24T04:03:05;12.30;;;7.68;;
75371;SDS011;63956;52.006;5.878;2023-04-24T04:08:03;13.32;;;8.00;;
75371;SDS011;63956;52.006;5.878;2023-04-24T04:10:32;18.23;;;10.73;;
75371;SDS011;63956;52.006;5.878;2023-04-24T04:13:04;15.50;;;9.05;;
75371;SDS011;63956;52.006;5.878;2023-04-24T04:15:37;17.02;;;11.57;;
75371;SDS011;63956;52.006;5.878;2023-04-24T04:18:06;16.25;;;9.90;;
75371;SDS011;63956;52.006;5.878;2023-04-24T04:20:36;18.70;;;10.90;;
75371;SDS011;63956;52.006;5.878;2023-04-24T04:23:06;9.75;;;4.70;;
75371;SDS011;63956;52.006;5.878;2023-04-24T04:25:46;16.33;;;10.45;;
75371;SDS011;63956;52.006;5.878;2023-04-24T04:28:17;13.48;;;8.52;;
75371;SDS011;63956;52.006;5.878;2023-04-24T04:30:50;13.48;;;8.27;;
75371;SDS011;63956;52.006;5.878;2023-04-24T04:33:23;12.57;;;7.88;;
75371;SDS011;63956;52.006;5.878;2023-04-24T04:35:52;10.93;;;7.10;;
75371;SDS011;63956;52.006;5.878;2023-04-24T04:38:25;15.38;;;9.52;;
75371;SDS011;63956;52.006;5.878;2023-04-24T04:41:07;13.02;;;5.93;;
75371;SDS011;63956;52.006;5.878;2023-04-24T04:43:37;16.30;;;11.35;;
75371;SDS011;63956;52.006;5.878;2023-04-24T04:46:10;13.30;;;7.32;;
75371;SDS011;63956;52.006;5.878;2023-04-24T04:48:58;6.75;;;3.80;;
75371;SDS011;63956;52.006;5.878;2023-04-24T04:51:28;14.35;;;9.07;;
75371;SDS011;63956;52.006;5.878;2023-04-24T04:53:58;17.33;;;9.15;;
75371;SDS011;63956;52.006;5.878;2023-04-24T04:56:27;14.27;;;8.63;;
75371;SDS011;63956;52.006;5.878;2023-04-24T04:58:59;13.57;;;8.93;;
75371;SDS011;63956;52.006;5.878;2023-04-24T05:01:31;10.38;;;7.18;;
75371;SDS011;63956;52.006;5.878;2023-04-24T05:04:01;16.55;;;9.98;;
75371;SDS011;63956;52.006;5.878;2023-04-24T05:06:30;13.02;;;7.97;;
75371;SDS011;63956;52.006;5.878;2023-04-24T05:08:59;13.43;;;8.20;;
75371;SDS011;63956;52.006;5.878;2023-04-24T05:11:52;8.82;;;4.63;;
75371;SDS011;63956;52.006;5.878;2023-04-24T05:14:23;15.60;;;8.25;;
75371;SDS011;63956;52.006;5.878;2023-04-24T05:16:55;9.38;;;5.75;;
75371;SDS011;63956;52.006;5.878;2023-04-24T05:19:26;16.35;;;8.63;;
75371;SDS011;63956;52.006;5.878;2023-04-24T05:21:55;12.82;;;6.65;;
75371;SDS011;63956;52.006;5.878;2023-04-24T05:24:24;12.45;;;7.93;;
75371;SDS011;63956;52.006;5.878;2023-04-24T05:26:53;12.68;;;6.95;;
75371;SDS011;63956;52.006;5.878;2023-04-24T05:29:28;10.85;;;6.90;;
75371;SDS011;63956;52.006;5.878;2023-04-24T05:32:01;8.50;;;6.20;;
75371;SDS011;63956;52.006;5.878;2023-04-24T05:34:31;10.10;;;6.45;;
75371;SDS011;63956;52.006;5.878;2023-04-24T05:37:00;9.00;;;4.63;;
75371;SDS011;63956;52.006;5.878;2023-04-24T05:39:33;8.93;;;5.53;;
75371;SDS011;63956;52.006;5.878;2023-04-24T05:42:03;6.07;;;3.38;;
75371;SDS011;63956;52.006;5.878;2023-04-24T05:44:33;9.00;;;5.45;;
75371;SDS011;63956;52.006;5.878;2023-04-24T05:47:04;8.50;;;5.15;;
75371;SDS011;63956;52.006;5.878;2023-04-24T05:49:34;8.00;;;5.18;;
75371;SDS011;63956;52.006;5.878;2023-04-24T05:52:03;6.30;;;3.45;;
75371;SDS011;63956;52.006;5.878;2023-04-24T05:54:35;9.25;;;5.13;;
75371;SDS011;63956;52.006;5.878;2023-04-24T05:57:04;6.90;;;4.03;;
75371;SDS011;63956;52.006;5.878;2023-04-24T06:00:02;10.45;;;5.97;;
75371;SDS011;63956;52.006;5.878;2023-04-24T06:02:42;8.43;;;5.03;;
75371;SDS011;63956;52.006;5.878;2023-04-24T06:05:13;7.20;;;4.55;;
75371;SDS011;63956;52.006;5.878;2023-04-24T06:07:44;6.40;;;3.13;;
75371;SDS011;63956;52.006;5.878;2023-04-24T06:10:14;9.07;;;4.63;;
75371;SDS011;63956;52.006;5.878;2023-04-24T06:12:44;6.00;;;3.13;;
75371;SDS011;63956;52.006;5.878;2023-04-24T06:15:17;5.80;;;3.60;;
75371;SDS011;63956;52.006;5.878;2023-04-24T06:17:55;5.38;;;3.28;;
75371;SDS011;63956;52.006;5.878;2023-04-24T06:20:25;6.10;;;3.85;;
75371;SDS011;63956;52.006;5.878;2023-04-24T06:22:54;6.13;;;3.97;;
75371;SDS011;63956;52.006;5.878;2023-04-24T06:25:24;6.07;;;3.47;;
75371;SDS011;63956;52.006;5.878;2023-04-24T06:27:54;4.13;;;1.30;;
75371;SDS011;63956;52.006;5.878;2023-04-24T06:30:24;5.70;;;2.90;;
75371;SDS011;63956;52.006;5.878;2023-04-24T06:32:57;4.38;;;1.52;;
75371;SDS011;63956;52.006;5.878;2023-04-24T06:35:26;5.45;;;3.17;;
75371;SDS011;63956;52.006;5.878;2023-04-24T06:37:55;5.15;;;2.70;;
75371;SDS011;63956;52.006;5.878;2023-04-24T06:42:53;7.78;;;4.65;;
75371;SDS011;63956;52.006;5.878;2023-04-24T06:45:23;4.78;;;1.38;;
75371;SDS011;63956;52.006;5.878;2023-04-24T06:47:52;4.70;;;3.00;;
75371;SDS011;63956;52.006;5.878;2023-04-24T06:50:24;5.38;;;3.20;;
75371;SDS011;63956;52.006;5.878;2023-04-24T06:52:53;6.00;;;3.75;;
75371;SDS011;63956;52.006;5.878;2023-04-24T06:55:23;4.72;;;2.83;;
75371;SDS011;63956;52.006;5.878;2023-04-24T06:57:52;4.88;;;2.47;;
75371;SDS011;63956;52.006;5.878;2023-04-24T07:02:49;5.60;;;2.08;;
75371;SDS011;63956;52.006;5.878;2023-04-24T07:07:51;4.30;;;2.22;;
75371;SDS011;63956;52.006;5.878;2023-04-24T07:10:20;4.68;;;2.45;;
75371;SDS011;63956;52.006;5.878;2023-04-24T07:12:50;5.05;;;2.45;;
75371;SDS011;63956;52.006;5.878;2023-04-24T07:15:19;5.07;;;2.42;;
75371;SDS011;63956;52.006;5.878;2023-04-24T07:17:49;4.18;;;2.58;;
75371;SDS011;63956;52.006;5.878;2023-04-24T07:20:18;5.32;;;2.15;;
75371;SDS011;63956;52.006;5.878;2023-04-24T07:22:47;3.38;;;1.83;;
75371;SDS011;63956;52.006;5.878;2023-04-24T07:25:20;4.40;;;2.17;;
75371;SDS011;63956;52.006;5.878;2023-04-24T07:27:49;3.72;;;2.35;;
75371;SDS011;63956;52.006;5.878;2023-04-24T07:30:18;3.88;;;1.25;;
75371;SDS011;63956;52.006;5.878;2023-04-24T07:32:47;3.80;;;2.00;;
75371;SDS011;63956;52.006;5.878;2023-04-24T07:37:45;2.90;;;1.73;;
75371;SDS011;63956;52.006;5.878;2023-04-24T07:40:14;3.22;;;1.70;;
75371;SDS011;63956;52.006;5.878;2023-04-24T07:42:47;6.10;;;1.98;;
75371;SDS011;63956;52.006;5.878;2023-04-24T07:45:16;4.68;;;2.63;;
75371;SDS011;63956;52.006;5.878;2023-04-24T07:47:46;3.83;;;1.95;;
75371;SDS011;63956;52.006;5.878;2023-04-24T07:50:15;4.63;;;2.72;;
75371;SDS011;63956;52.006;5.878;2023-04-24T07:52:44;5.15;;;2.80;;
75371;SDS011;63956;52.006;5.878;2023-04-24T07:55:13;5.90;;;3.50;;
75371;SDS011;63956;52.006;5.878;2023-04-24T07:57:42;9.00;;;3.08;;
75371;SDS011;63956;52.006;5.878;2023-04-24T08:00:15;6.28;;;3.55;;
75371;SDS011;63956;52.006;5.878;2023-04-24T08:02:44;5.70;;;3.42;;
75371;SDS011;63956;52.006;5.878;2023-04-24T08:05:14;6.65;;;3.05;;
75371;SDS011;63956;52.006;5.878;2023-04-24T08:07:43;6.93;;;5.93;;
75371;SDS011;63956;52.006;5.878;2023-04-24T08:10:14;7.20;;;3.75;;
75371;SDS011;63956;52.006;5.878;2023-04-24T08:12:43;7.82;;;3.75;;
75371;SDS011;63956;52.006;5.878;2023-04-24T08:15:15;5.18;;;1.88;;
75371;SDS011;63956;52.006;5.878;2023-04-24T08:17:44;8.60;;;4.07;;
75371;SDS011;63956;52.006;5.878;2023-04-24T08:20:13;5.60;;;2.47;;
75371;SDS011;63956;52.006;5.878;2023-04-24T08:22:43;7.15;;;3.55;;
75371;SDS011;63956;52.006;5.878;2023-04-24T08:25:13;5.05;;;1.75;;
75371;SDS011;63956;52.006;5.878;2023-04-24T08:27:43;5.70;;;3.08;;
75371;SDS011;63956;52.006;5.878;2023-04-24T08:30:14;8.00;;;3.10;;
75371;SDS011;63956;52.006;5.878;2023-04-24T08:32:44;7.07;;;3.55;;
75371;SDS011;63956;52.006;5.878;2023-04-24T08:35:13;6.30;;;3.38;;
75371;SDS011;63956;52.006;5.878;2023-04-24T08:37:42;7.47;;;4.80;;
75371;SDS011;63956;52.006;5.878;2023-04-24T08:40:12;7.63;;;4.65;;
75371;SDS011;63956;52.006;5.878;2023-04-24T08:42:42;8.65;;;4.03;;
75371;SDS011;63956;52.006;5.878;2023-04-24T08:45:15;8.18;;;2.30;;
75371;SDS011;63956;52.006;5.878;2023-04-24T08:47:44;7.25;;;3.67;;
75371;SDS011;63956;52.006;5.878;2023-04-24T08:50:13;5.53;;;1.95;;
75371;SDS011;63956;52.006;5.878;2023-04-24T08:52:42;5.97;;;2.97;;
75371;SDS011;63956;52.006;5.878;2023-04-24T08:55:11;7.90;;;6.10;;
75371;SDS011;63956;52.006;5.878;2023-04-24T08:57:42;5.72;;;2.53;;
75371;SDS011;63956;52.006;5.878;2023-04-24T09:00:18;5.65;;;3.42;;
75371;SDS011;63956;52.006;5.878;2023-04-24T09:02:49;6.45;;;3.22;;
75371;SDS011;63956;52.006;5.878;2023-04-24T09:05:19;6.03;;;2.92;;
75371;SDS011;63956;52.006;5.878;2023-04-24T09:07:53;5.60;;;3.13;;
75371;SDS011;63956;52.006;5.878;2023-04-24T09:10:24;5.97;;;2.80;;
75371;SDS011;63956;52.006;5.878;2023-04-24T09:12:56;5.30;;;3.58;;
75371;SDS011;63956;52.006;5.878;2023-04-24T09:15:31;5.78;;;2.65;;
75371;SDS011;63956;52.006;5.878;2023-04-24T09:18:01;5.43;;;2.60;;
75371;SDS011;63956;52.006;5.878;2023-04-24T09:20:31;6.28;;;3.08;;
75371;SDS011;63956;52.006;5.878;2023-04-24T09:23:01;6.22;;;3.05;;
75371;SDS011;63956;52.006;5.878;2023-04-24T09:25:34;6.63;;;3.38;;
75371;SDS011;63956;52.006;5.878;2023-04-24T09:28:04;8.63;;;3.13;;
75371;SDS011;63956;52.006;5.878;2023-04-24T09:30:36;6.22;;;2.63;;
75371;SDS011;63956;52.006;5.878;2023-04-24T09:33:12;3.53;;;1.67;;
75371;SDS011;63956;52.006;5.878;2023-04-24T09:35:42;5.00;;;0.90;;
75371;SDS011;63956;52.006;5.878;2023-04-24T09:38:19;8.35;;;3.15;;
75371;SDS011;63956;52.006;5.878;2023-04-24T09:40:59;5.93;;;1.98;;
75371;SDS011;63956;52.006;5.878;2023-04-24T09:43:40;6.20;;;1.10;;
75371;SDS011;63956;52.006;5.878;2023-04-24T09:46:09;6.75;;;1.17;;
75371;SDS011;63956;52.006;5.878;2023-04-24T09:48:39;6.03;;;1.00;;
75371;SDS011;63956;52.006;5.878;2023-04-24T09:51:08;5.78;;;0.88;;
75371;SDS011;63956;52.006;5.878;2023-04-24T09:53:38;2.75;;;0.63;;
75371;SDS011;63956;52.006;5.878;2023-04-24T09:56:12;7.38;;;1.27;;
75371;SDS011;63956;52.006;5.878;2023-04-24T09:58:44;10.70;;;1.58;;
75371;SDS011;63956;52.006;5.878;2023-04-24T10:01:15;10.35;;;1.20;;
75371;SDS011;63956;52.006;5.878;2023-04-24T10:03:44;8.27;;;2.15;;
75371;SDS011;63956;52.006;5.878;2023-04-24T10:06:14;4.22;;;2.03;;
75371;SDS011;63956;52.006;5.878;2023-04-24T10:08:43;4.18;;;1.25;;
75371;SDS011;63956;52.006;5.878;2023-04-24T10:11:13;6.78;;;0.90;;
75371;SDS011;63956;52.006;5.878;2023-04-24T10:13:46;4.53;;;1.13;;
75371;SDS011;63956;52.006;5.878;2023-04-24T10:16:15;7.38;;;1.23;;
75371;SDS011;63956;52.006;5.878;2023-04-24T10:18:45;7.30;;;1.02;;
75371;SDS011;63956;52.006;5.878;2023-04-24T10:21:15;6.75;;;0.95;;
75371;SDS011;63956;52.006;5.878;2023-04-24T10:23:45;8.32;;;1.00;;
75371;SDS011;63956;52.006;5.878;2023-04-24T10:26:14;3.45;;;1.23;;
75371;SDS011;63956;52.006;5.878;2023-04-24T10:28:48;5.93;;;1.17;;
75371;SDS011;63956;52.006;5.878;2023-04-24T10:31:17;6.78;;;1.15;;
75371;SDS011;63956;52.006;5.878;2023-04-24T10:33:47;5.47;;;1.27;;
75371;SDS011;63956;52.006;5.878;2023-04-24T10:36:20;6.15;;;0.95;;
75371;SDS011;63956;52.006;5.878;2023-04-24T10:38:52;4.13;;;1.38;;
75371;SDS011;63956;52.006;5.878;2023-04-24T10:41:24;6.05;;;1.00;;
75371;SDS011;63956;52.006;5.878;2023-04-24T10:44:06;2.40;;;0.65;;
75371;SDS011;63956;52.006;5.878;2023-04-24T10:46:36;5.43;;;1.02;;
75371;SDS011;63956;52.006;5.878;2023-04-24T10:49:06;4.03;;;0.80;;
75371;SDS011;63956;52.006;5.878;2023-04-24T10:51:44;2.17;;;0.52;;
75371;SDS011;63956;52.006;5.878;2023-04-24T10:54:22;5.10;;;1.27;;
75371;SDS011;63956;52.006;5.878;2023-04-24T10:56:52;5.90;;;0.73;;
75371;SDS011;63956;52.006;5.878;2023-04-24T10:59:29;3.28;;;0.98;;
75371;SDS011;63956;52.006;5.878;2023-04-24T11:02:03;4.25;;;0.73;;
75371;SDS011;63956;52.006;5.878;2023-04-24T11:04:36;3.85;;;0.70;;
75371;SDS011;63956;52.006;5.878;2023-04-24T11:07:05;3.30;;;0.60;;
75371;SDS011;63956;52.006;5.878;2023-04-24T11:09:34;4.22;;;1.25;;
75371;SDS011;63956;52.006;5.878;2023-04-24T11:12:06;3.15;;;0.60;;
75371;SDS011;63956;52.006;5.878;2023-04-24T11:17:38;3.85;;;0.93;;
75371;SDS011;63956;52.006;5.878;2023-04-24T11:20:11;6.28;;;0.70;;
75371;SDS011;63956;52.006;5.878;2023-04-24T11:22:44;5.05;;;0.65;;
75371;SDS011;63956;52.006;5.878;2023-04-24T11:25:13;4.88;;;1.05;;
75371;SDS011;63956;52.006;5.878;2023-04-24T11:27:44;3.42;;;0.73;;
75371;SDS011;63956;52.006;5.878;2023-04-24T11:30:19;3.15;;;0.70;;
75371;SDS011;63956;52.006;5.878;2023-04-24T11:32:50;4.97;;;1.33;;
75371;SDS011;63956;52.006;5.878;2023-04-24T11:35:20;3.22;;;0.30;;
75371;SDS011;63956;52.006;5.878;2023-04-24T11:37:51;1.55;;;0.32;;
75371;SDS011;63956;52.006;5.878;2023-04-24T11:40:21;5.50;;;0.70;;
75371;SDS011;63956;52.006;5.878;2023-04-24T11:42:52;2.53;;;0.60;;
75371;SDS011;63956;52.006;5.878;2023-04-24T11:45:26;2.78;;;0.57;;
75371;SDS011;63956;52.006;5.878;2023-04-24T11:47:56;2.30;;;0.90;;
75371;SDS011;63956;52.006;5.878;2023-04-24T11:50:26;2.88;;;0.45;;
75371;SDS011;63956;52.006;5.878;2023-04-24T11:52:56;1.67;;;0.47;;
75371;SDS011;63956;52.006;5.878;2023-04-24T11:55:26;1.30;;;0.47;;
75371;SDS011;63956;52.006;5.878;2023-04-24T11:57:57;4.47;;;0.52;;
75371;SDS011;63956;52.006;5.878;2023-04-24T12:00:31;2.35;;;0.50;;
75371;SDS011;63956;52.006;5.878;2023-04-24T12:03:05;1.33;;;0.30;;
75371;SDS011;63956;52.006;5.878;2023-04-24T12:05:37;2.55;;;0.52;;
75371;SDS011;63956;52.006;5.878;2023-04-24T12:08:06;2.30;;;0.40;;
75371;SDS011;63956;52.006;5.878;2023-04-24T12:10:36;2.20;;;0.30;;
75371;SDS011;63956;52.006;5.878;2023-04-24T12:13:05;1.45;;;0.45;;
75371;SDS011;63956;52.006;5.878;2023-04-24T12:15:40;1.77;;;0.40;;
75371;SDS011;63956;52.006;5.878;2023-04-24T12:18:11;1.05;;;0.20;;
75371;SDS011;63956;52.006;5.878;2023-04-24T12:20:42;2.90;;;0.47;;
75371;SDS011;63956;52.006;5.878;2023-04-24T12:23:11;1.58;;;0.40;;
75371;SDS011;63956;52.006;5.878;2023-04-24T12:25:40;2.40;;;0.50;;
75371;SDS011;63956;52.006;5.878;2023-04-24T12:28:10;1.60;;;0.20;;
75371;SDS011;63956;52.006;5.878;2023-04-24T12:30:44;4.68;;;1.05;;
75371;SDS011;63956;52.006;5.878;2023-04-24T12:33:17;4.68;;;1.05;;
75371;SDS011;63956;52.006;5.878;2023-04-24T12:35:47;3.05;;;0.60;;
75371;SDS011;63956;52.006;5.878;2023-04-24T12:38:21;4.10;;;0.90;;
75371;SDS011;63956;52.006;5.878;2023-04-24T12:41:01;2.15;;;0.47;;
75371;SDS011;63956;52.006;5.878;2023-04-24T12:43:32;1.80;;;0.45;;
75371;SDS011;63956;52.006;5.878;2023-04-24T12:46:04;3.10;;;0.88;;
75371;SDS011;63956;52.006;5.878;2023-04-24T12:48:33;2.20;;;0.65;;
75371;SDS011;63956;52.006;5.878;2023-04-24T12:51:03;2.97;;;0.50;;
75371;SDS011;63956;52.006;5.878;2023-04-24T12:53:32;2.90;;;0.70;;
75371;SDS011;63956;52.006;5.878;2023-04-24T12:56:01;3.22;;;0.60;;
75371;SDS011;63956;52.006;5.878;2023-04-24T12:58:31;1.75;;;0.30;;
75371;SDS011;63956;52.006;5.878;2023-04-24T13:01:00;1.50;;;0.43;;
75371;SDS011;63956;52.006;5.878;2023-04-24T13:03:32;3.03;;;0.73;;
75371;SDS011;63956;52.006;5.878;2023-04-24T13:06:01;2.53;;;0.80;;
75371;SDS011;63956;52.006;5.878;2023-04-24T13:08:30;6.55;;;0.57;;
75371;SDS011;63956;52.006;5.878;2023-04-24T13:10:59;3.55;;;0.35;;
75371;SDS011;63956;52.006;5.878;2023-04-24T13:13:28;1.88;;;0.40;;
75371;SDS011;63956;52.006;5.878;2023-04-24T13:15:57;2.85;;;0.30;;
75371;SDS011;63956;52.006;5.878;2023-04-24T13:18:27;6.13;;;0.73;;
75371;SDS011;63956;52.006;5.878;2023-04-24T13:20:58;4.78;;;0.50;;
75371;SDS011;63956;52.006;5.878;2023-04-24T13:23:27;1.13;;;0.20;;
75371;SDS011;63956;52.006;5.878;2023-04-24T13:25:57;2.00;;;0.43;;
75371;SDS011;63956;52.006;5.878;2023-04-24T13:28:26;2.70;;;0.30;;
75371;SDS011;63956;52.006;5.878;2023-04-24T13:30:56;2.58;;;0.45;;
75371;SDS011;63956;52.006;5.878;2023-04-24T13:33:25;4.88;;;0.50;;
75371;SDS011;63956;52.006;5.878;2023-04-24T13:35:54;3.30;;;0.77;;
75371;SDS011;63956;52.006;5.878;2023-04-24T13:38:26;5.13;;;1.08;;
75371;SDS011;63956;52.006;5.878;2023-04-24T13:40:55;1.95;;;0.35;;
75371;SDS011;63956;52.006;5.878;2023-04-24T13:43:24;7.65;;;0.45;;
75371;SDS011;63956;52.006;5.878;2023-04-24T13:45:53;4.32;;;0.65;;
75371;SDS011;63956;52.006;5.878;2023-04-24T13:48:22;3.97;;;0.70;;
75371;SDS011;63956;52.006;5.878;2023-04-24T13:50:51;5.07;;;0.88;;
75371;SDS011;63956;52.006;5.878;2023-04-24T13:53:20;2.92;;;0.70;;
75371;SDS011;63956;52.006;5.878;2023-04-24T13:55:52;3.55;;;0.63;;
75371;SDS011;63956;52.006;5.878;2023-04-24T13:58:21;1.63;;;0.43;;
75371;SDS011;63956;52.006;5.878;2023-04-24T14:00:50;6.38;;;1.08;;
75371;SDS011;63956;52.006;5.878;2023-04-24T14:03:20;2.35;;;0.60;;
75371;SDS011;63956;52.006;5.878;2023-04-24T14:08:17;3.85;;;1.08;;
75371;SDS011;63956;52.006;5.878;2023-04-24T14:13:18;7.57;;;0.95;;
75371;SDS011;63956;52.006;5.878;2023-04-24T14:15:49;4.38;;;0.90;;
75371;SDS011;63956;52.006;5.878;2023-04-24T14:18:18;4.22;;;1.05;;
75371;SDS011;63956;52.006;5.878;2023-04-24T14:20:47;5.88;;;0.63;;
75371;SDS011;63956;52.006;5.878;2023-04-24T14:23:16;4.35;;;0.55;;
75371;SDS011;63956;52.006;5.878;2023-04-24T14:25:46;5.32;;;0.88;;
75371;SDS011;63956;52.006;5.878;2023-04-24T14:28:20;9.23;;;1.42;;
75371;SDS011;63956;52.006;5.878;2023-04-24T14:30:49;6.72;;;1.27;;
75371;SDS011;63956;52.006;5.878;2023-04-24T14:33:19;6.00;;;1.10;;
75371;SDS011;63956;52.006;5.878;2023-04-24T14:35:48;4.72;;;1.58;;
75371;SDS011;63956;52.006;5.878;2023-04-24T14:38:17;3.78;;;1.40;;
75371;SDS011;63956;52.006;5.878;2023-04-24T14:40:46;6.72;;;1.13;;
75371;SDS011;63956;52.006;5.878;2023-04-24T14:43:15;8.57;;;0.82;;
75371;SDS011;63956;52.006;5.878;2023-04-24T14:45:47;6.38;;;1.05;;
75371;SDS011;63956;52.006;5.878;2023-04-24T14:48:16;6.78;;;1.23;;
75371;SDS011;63956;52.006;5.878;2023-04-24T14:50:45;2.80;;;0.50;;
75371;SDS011;63956;52.006;5.878;2023-04-24T14:53:15;4.78;;;1.35;;
75371;SDS011;63956;52.006;5.878;2023-04-24T14:55:44;4.53;;;1.17;;
75371;SDS011;63956;52.006;5.878;2023-04-24T14:58:13;4.65;;;0.80;;
75371;SDS011;63956;52.006;5.878;2023-04-24T15:00:42;2.47;;;0.63;;
75371;SDS011;63956;52.006;5.878;2023-04-24T15:03:14;5.05;;;0.80;;
75371;SDS011;63956;52.006;5.878;2023-04-24T15:05:43;3.45;;;0.90;;
75371;SDS011;63956;52.006;5.878;2023-04-24T15:08:12;3.30;;;0.45;;
75371;SDS011;63956;52.006;5.878;2023-04-24T15:10:42;5.22;;;0.75;;
75371;SDS011;63956;52.006;5.878;2023-04-24T15:13:11;3.55;;;1.02;;
75371;SDS011;63956;52.006;5.878;2023-04-24T15:15:40;6.25;;;0.73;;
75371;SDS011;63956;52.006;5.878;2023-04-24T15:18:09;5.82;;;0.50;;
75371;SDS011;63956;52.006;5.878;2023-04-24T15:20:41;5.88;;;1.50;;
75371;SDS011;63956;52.006;5.878;2023-04-24T15:23:11;6.93;;;0.98;;
75371;SDS011;63956;52.006;5.878;2023-04-24T15:25:40;7.05;;;1.02;;
75371;SDS011;63956;52.006;5.878;2023-04-24T15:28:10;3.13;;;0.70;;
75371;SDS011;63956;52.006;5.878;2023-04-24T15:30:39;6.80;;;1.40;;
75371;SDS011;63956;52.006;5.878;2023-04-24T15:35:37;7.80;;;1.30;;
75371;SDS011;63956;52.006;5.878;2023-04-24T15:38:09;5.60;;;0.90;;
75371;SDS011;63956;52.006;5.878;2023-04-24T15:40:38;4.78;;;1.05;;
75371;SDS011;63956;52.006;5.878;2023-04-24T15:45:36;4.28;;;1.05;;
75371;SDS011;63956;52.006;5.878;2023-04-24T15:48:05;3.63;;;0.68;;
75371;SDS011;63956;52.006;5.878;2023-04-24T15:50:34;9.60;;;1.00;;
75371;SDS011;63956;52.006;5.878;2023-04-24T15:55:36;7.35;;;1.27;;
75371;SDS011;63956;52.006;5.878;2023-04-24T15:58:05;7.43;;;0.93;;